Time;durP1;ratioP1;P1;durP2;ratioP2;P2;SDS_P1;SDS_P2;PMS_P1;PMS_P2;Temp;Humidity;BMP_temperature;BMP_pressure;BME280_temperature;BME280_humidity;BME280_pressure;Samples;Min_cycle;Max_cycle;Signal;HPM_P1;HPM_P2
2022/05/03 00:02:27;;;;;;;16.80;5.70;;;;;;;7.27;75.52;101749.28;5032988;28;20017;-76
2022/05/03 00:05:04;;;;;;;16.88;5.60;;;;;;;7.27;76.21;101755.47;5033196;28;20110;-76
2022/05/03 00:07:55;;;;;;;15.77;5.28;;;;;;;7.26;75.63;101745.75;5031377;28;20516;-76
2022/05/03 00:10:28;;;;;;;16.27;5.55;;;;;;;7.18;75.92;101754.09;5033110;28;20531;-76
2022/05/03 00:13:02;;;;;;;17.40;5.50;;;;;;;7.18;75.57;101761.25;5018342;28;20061;-76
2022/05/03 00:15:31;;;;;;;15.48;5.15;;;;;;;7.15;76.04;101748.03;5011830;28;20076;-76
2022/05/03 00:17:57;;;;;;;17.65;6.07;;;;;;;7.11;75.90;101746.41;5020132;28;20057;-76
2022/05/03 00:20:23;;;;;;;16.55;5.68;;;;;;;7.12;76.38;101742.81;5032962;28;20433;-76
2022/05/03 00:22:49;;;;;;;18.00;6.03;;;;;;;7.08;76.10;101744.72;5031219;28;20370;-76
2022/05/03 00:25:16;;;;;;;16.45;5.88;;;;;;;7.04;76.54;101739.59;5032718;28;20104;-76
2022/05/03 00:27:42;;;;;;;17.58;5.78;;;;;;;7.03;76.83;101740.53;5031410;28;20120;-76
2022/05/03 00:30:08;;;;;;;16.30;5.80;;;;;;;6.97;76.55;101745.22;5032788;28;20067;-76
2022/05/03 00:32:34;;;;;;;14.48;5.15;;;;;;;6.92;76.75;101741.88;5030966;28;20092;-76
2022/05/03 00:35:00;;;;;;;17.60;5.38;;;;;;;6.91;76.59;101728.56;5032777;28;20025;-76
2022/05/03 00:37:26;;;;;;;16.15;5.63;;;;;;;6.87;76.91;101732.31;5032230;28;20037;-76
2022/05/03 00:39:51;;;;;;;18.42;5.95;;;;;;;6.86;77.14;101733.25;5032573;28;20031;-76
2022/05/03 00:42:28;;;;;;;16.77;5.00;;;;;;;6.81;76.33;101737.00;5028854;28;20030;-76
2022/05/03 00:45:18;;;;;;;16.63;5.63;;;;;;;6.81;76.56;101738.81;5011073;28;20045;-76
2022/05/03 00:47:54;;;;;;;17.95;5.25;;;;;;;6.74;77.15;101732.84;5019278;28;20053;-76
2022/05/03 00:50:51;;;;;;;17.02;5.40;;;;;;;6.73;76.28;101730.25;5032449;28;20026;-76
2022/05/03 00:53:22;;;;;;;16.05;5.57;;;;;;;6.68;77.16;101729.56;5032233;28;20048;-76
2022/05/03 00:56:23;;;;;;;15.55;5.78;;;;;;;6.69;76.77;101745.56;5030625;28;20603;-76
2022/05/03 00:58:56;;;;;;;17.30;6.18;;;;;;;6.61;77.68;101743.19;5009851;28;20056;-76
2022/05/03 01:01:41;;;;;;;17.40;6.03;;;;;;;6.59;77.07;101742.41;4993373;28;20088;-75
2022/05/03 01:04:21;;;;;;;16.90;6.30;;;;;;;6.58;77.31;101747.81;4993132;28;20559;-75
2022/05/03 01:07:05;;;;;;;;;;;;;;;6.65;75.72;101736.78;5009466;28;20050;-75
2022/05/03 01:09:49;;;;;;;14.55;5.53;;;;;;;6.56;77.27;101738.97;4992906;28;19913;-75
2022/05/03 01:12:24;;;;;;;17.40;5.97;;;;;;;6.49;77.63;101735.69;5009516;28;20041;-75
2022/05/03 01:15:10;;;;;;;16.83;5.85;;;;;;;6.46;77.68;101733.16;4992954;28;20084;-75
2022/05/03 01:17:43;;;;;;;18.33;5.72;;;;;;;6.38;78.09;101736.13;4992591;28;20033;-75
2022/05/03 01:20:11;;;;;;;18.00;5.60;;;;;;;6.33;78.97;101731.94;5009441;28;20034;-75
2022/05/03 01:22:55;;;;;;;17.42;5.97;;;;;;;6.28;79.23;101724.09;4983470;28;20031;-75
2022/05/03 01:25:38;;;;;;;16.15;5.82;;;;;;;6.27;78.55;101727.72;4970252;28;20062;-75
2022/05/03 01:28:15;;;;;;;14.95;5.97;;;;;;;6.22;78.55;101727.03;4970173;28;20035;-75
2022/05/03 01:30:47;;;;;;;18.65;5.97;;;;;;;6.23;79.11;101726.97;4969997;28;20193;-75
2022/05/03 01:33:17;;;;;;;18.65;6.55;;;;;;;6.22;78.41;101732.38;4970521;28;20084;-75
2022/05/03 01:35:45;;;;;;;16.75;5.82;;;;;;;6.19;78.98;101725.34;4991690;28;20042;-75
2022/05/03 01:38:22;;;;;;;17.08;6.07;;;;;;;6.19;78.76;101729.81;4992099;28;20239;-75
2022/05/03 01:41:18;;;;;;;16.85;5.88;;;;;;;6.19;79.09;101728.00;4991943;28;20057;-75
2022/05/03 01:44:05;;;;;;;17.15;6.05;;;;;;;6.14;79.04;101723.81;5007055;28;20375;-75
2022/05/03 01:46:34;;;;;;;18.70;6.63;;;;;;;6.08;78.93;101727.59;4991864;28;20034;-75
2022/05/03 01:52:28;;;;;;;20.05;6.10;;;;;;;6.02;79.53;101718.03;5030767;28;20044;-75
2022/05/03 01:55:27;;;;;;;17.27;6.07;;;;;;;6.03;78.94;101724.22;5033213;28;20029;-75
2022/05/03 01:58:18;;;;;;;19.15;6.28;;;;;;;5.99;78.67;101717.28;5036400;28;20025;-75
2022/05/03 02:00:56;;;;;;;16.63;5.18;;;;;;;5.96;79.72;101718.25;5021293;28;20121;-75
2022/05/03 02:03:40;;;;;;;18.85;6.30;;;;;;;5.91;79.40;101715.75;5036520;28;20025;-75
2022/05/03 02:06:12;;;;;;;17.23;6.10;;;;;;;5.91;79.39;101715.75;5035969;28;20535;-75
2022/05/03 02:09:04;;;;;;;16.20;5.22;;;;;;;5.91;78.66;101718.41;5036032;28;20053;-75
2022/05/03 02:11:38;;;;;;;16.17;5.72;;;;;;;5.87;79.01;101716.81;5035799;28;20052;-75
2022/05/03 02:17:16;;;;;;;18.55;6.28;;;;;;;5.87;78.83;101715.94;5017812;28;20069;-75
2022/05/03 02:20:06;;;;;;;16.48;5.93;;;;;;;5.83;79.35;101703.66;4996969;28;20033;-75
2022/05/03 02:22:42;;;;;;;;;;;;;;;5.87;77.52;101708.81;4998142;28;20474;-75
2022/05/03 02:25:15;;;;;;;16.98;6.03;;;;;;;5.73;79.33;101716.50;4997941;28;20385;-75
2022/05/03 02:27:47;;;;;;;18.08;6.00;;;;;;;5.68;79.73;101713.13;4996627;28;20096;-75
2022/05/03 02:30:16;;;;;;;14.43;5.13;;;;;;;5.63;80.07;101715.97;4996085;28;20026;-75
2022/05/03 02:32:56;;;;;;;18.40;5.93;;;;;;;5.60;79.92;101724.09;4996483;28;20022;-75
2022/05/03 02:35:23;;;;;;;18.58;5.97;;;;;;;5.57;79.09;101711.75;4997989;28;20185;-75
2022/05/03 02:37:55;;;;;;;16.00;6.15;;;;;;;5.53;79.38;101717.25;4997753;28;20026;-75
2022/05/03 02:40:25;;;;;;;17.15;5.65;;;;;;;5.47;80.00;101715.69;4997838;28;20030;-75
2022/05/03 02:42:54;;;;;;;18.80;6.18;;;;;;;5.47;80.36;101714.84;5003842;28;20037;-75
2022/05/03 02:45:20;;;;;;;15.07;5.93;;;;;;;5.45;80.50;101706.91;5016318;28;20026;-75
2022/05/03 02:48:06;;;;;;;18.55;5.93;;;;;;;5.42;80.22;101712.34;5024317;28;20025;-75
2022/05/03 02:50:57;;;;;;;17.10;5.47;;;;;;;5.41;80.46;101710.59;5035819;28;20044;-75
2022/05/03 02:53:34;;;;;;;18.63;5.28;;;;;;;5.37;80.25;101714.31;5035752;28;20048;-75
2022/05/03 02:56:14;;;;;;;16.80;5.75;;;;;;;5.37;80.59;101717.84;5037068;28;20057;-75
2022/05/03 02:59:06;;;;;;;15.57;5.80;;;;;;;5.39;79.70;101723.97;5037030;28;20123;-75
2022/05/03 03:01:48;;;;;;;16.13;5.57;;;;;;;5.34;79.79;101717.94;5036938;28;20026;-75
2022/05/03 03:04:32;;;;;;;16.48;5.90;;;;;;;5.32;80.03;101722.47;5037153;28;20021;-75
2022/05/03 03:06:58;;;;;;;16.10;5.68;;;;;;;5.25;80.28;101712.97;5032937;28;20064;-75
2022/05/03 03:09:48;;;;;;;17.63;5.63;;;;;;;5.26;79.27;101714.72;5032631;28;20026;-75
2022/05/03 03:12:26;;;;;;;14.60;5.30;;;;;;;5.20;80.17;101707.81;5032501;28;20033;-75
2022/05/03 03:14:59;;;;;;;17.52;6.00;;;;;;;5.20;80.78;101707.81;5033978;28;20039;-75
2022/05/03 03:17:28;;;;;;;15.07;5.78;;;;;;;5.19;80.29;101705.22;5033580;28;20029;-75
2022/05/03 03:20:07;;;;;;;16.75;5.40;;;;;;;5.20;80.49;101713.13;5032413;28;20036;-75
2022/05/03 03:22:44;;;;;;;15.70;5.47;;;;;;;5.16;79.81;101714.16;5028093;28;20512;-75
2022/05/03 03:25:12;;;;;;;16.23;4.72;;;;;;;5.11;80.35;101710.81;5012434;28;20084;-75
2022/05/03 03:27:38;;;;;;;18.65;6.85;;;;;;;5.06;80.74;101715.44;5013755;28;20056;-75
2022/05/03 03:30:05;;;;;;;16.33;5.22;;;;;;;5.02;81.46;101712.03;5012325;28;20040;-75
2022/05/03 03:32:31;;;;;;;17.02;5.78;;;;;;;5.01;80.40;101718.28;5013592;28;20052;-75
2022/05/03 03:34:58;;;;;;;18.92;5.68;;;;;;;5.01;80.77;101720.06;5013826;28;20026;-75
2022/05/03 03:37:26;;;;;;;16.95;5.68;;;;;;;4.99;80.22;101709.47;5013417;28;20033;-75
2022/05/03 03:39:52;;;;;;;14.32;5.72;;;;;;;4.99;80.72;101712.16;5012262;28;20026;-75
2022/05/03 03:42:17;;;;;;;16.20;5.53;;;;;;;4.97;80.92;101713.13;5013564;28;20029;-75
2022/05/03 03:44:44;;;;;;;16.05;5.85;;;;;;;4.93;80.79;101707.00;5013417;28;20033;-75
2022/05/03 03:47:09;;;;;;;20.05;6.45;;;;;;;4.89;80.45;101702.72;5015618;28;20030;-75
2022/05/03 03:49:36;;;;;;;17.63;6.07;;;;;;;4.86;80.77;101709.03;5033363;28;20393;-75
2022/05/03 03:52:02;;;;;;;21.13;5.85;;;;;;;4.84;80.82;101716.19;5032851;28;20029;-75
2022/05/03 03:54:28;;;;;;;21.50;6.43;;;;;;;4.79;81.15;101712.84;5031910;28;20532;-75
2022/05/03 03:56:54;;;;;;;17.65;5.95;;;;;;;4.75;80.62;101711.19;5032976;28;20033;-75
2022/05/03 03:59:20;;;;;;;17.33;6.00;;;;;;;4.76;80.90;101709.41;5033051;28;20029;-75
2022/05/03 04:01:48;;;;;;;19.30;6.10;;;;;;;4.72;80.92;101704.19;5032783;28;20037;-75
2022/05/03 04:04:15;;;;;;;17.25;6.90;;;;;;;4.69;81.03;101714.09;5032944;28;20029;-75
2022/05/03 04:06:41;;;;;;;16.73;5.90;;;;;;;4.65;81.13;101709.78;5032411;28;20050;-75
2022/05/03 04:09:06;;;;;;;20.65;7.32;;;;;;;4.62;81.22;101709.91;5031380;28;20500;-75
2022/05/03 04:11:43;;;;;;;22.85;6.90;;;;;;;4.59;81.11;101705.53;5030452;28;20505;-75
2022/05/03 04:14:08;;;;;;;18.85;6.07;;;;;;;4.54;81.65;101713.69;5013210;28;20029;-75
2022/05/03 04:16:33;;;;;;;18.77;6.25;;;;;;;4.55;81.78;101707.44;5012806;28;20084;-75
2022/05/03 04:18:58;;;;;;;18.02;6.32;;;;;;;4.54;81.93;101708.38;5029793;28;20039;-75
2022/05/03 04:21:24;;;;;;;15.35;5.80;;;;;;;4.53;81.66;101714.59;5032375;28;20032;-75
2022/05/03 04:23:49;;;;;;;18.42;6.25;;;;;;;4.53;82.08;101709.28;5032521;28;20400;-75
2022/05/03 04:26:14;;;;;;;17.55;6.55;;;;;;;4.53;82.92;101714.59;5031089;28;20055;-75
2022/05/03 04:28:40;;;;;;;18.35;7.28;;;;;;;4.53;82.20;101711.09;5032466;28;20100;-75
2022/05/03 04:31:05;;;;;;;20.83;7.82;;;;;;;4.54;82.87;101715.50;5032297;28;20092;-75
2022/05/03 04:33:31;;;;;;;18.02;6.47;;;;;;;4.53;83.23;101711.94;5032259;28;20030;-75
2022/05/03 04:35:56;;;;;;;19.58;6.93;;;;;;;4.53;83.07;101717.25;5032507;28;20396;-75
2022/05/03 04:38:21;;;;;;;19.50;7.43;;;;;;;4.55;83.26;101712.78;5032130;28;20025;-75
2022/05/03 04:40:47;;;;;;;19.10;7.28;;;;;;;4.54;82.81;101713.69;5030815;28;20056;-75
2022/05/03 04:43:12;;;;;;;18.00;7.00;;;;;;;4.59;82.83;101715.34;5022891;28;20389;-75
2022/05/03 04:45:37;;;;;;;18.60;6.63;;;;;;;4.59;83.33;101721.50;5011040;28;20107;-75
2022/05/03 04:48:03;;;;;;;20.88;7.45;;;;;;;4.62;83.69;101728.53;5021763;28;20045;-75
2022/05/03 04:50:28;;;;;;;19.02;6.63;;;;;;;4.64;83.83;101724.91;5032075;28;20033;-75
2022/05/03 04:52:53;;;;;;;20.85;6.35;;;;;;;4.67;83.89;101731.91;5031866;28;20036;-75
2022/05/03 04:55:19;;;;;;;19.92;7.15;;;;;;;4.72;83.96;101727.28;5032051;28;20485;-75
2022/05/03 04:57:44;;;;;;;19.92;7.25;;;;;;;4.76;84.08;101736.03;5031853;28;20044;-75
2022/05/03 05:00:10;;;;;;;20.73;6.70;;;;;;;4.76;84.43;101728.94;5032093;28;20434;-75
2022/05/03 05:02:36;;;;;;;22.70;7.38;;;;;;;4.80;84.54;101735.91;5031687;28;20033;-75
2022/05/03 05:05:01;;;;;;;18.67;6.57;;;;;;;4.81;84.50;101734.94;5031715;28;20052;-75
2022/05/03 05:07:26;;;;;;;18.90;7.40;;;;;;;4.87;85.00;101742.72;5029983;28;20053;-75
2022/05/03 05:12:35;;;;;;;19.73;7.47;;;;;;;5.00;84.29;101743.16;5031953;28;20171;-75
2022/05/03 05:15:01;;;;;;;18.88;7.18;;;;;;;5.07;83.99;101739.34;5030432;28;20104;-75
2022/05/03 05:17:27;;;;;;;23.48;8.27;;;;;;;5.14;83.50;101740.03;5031479;28;20037;-75
2022/05/03 05:19:52;;;;;;;20.25;7.57;;;;;;;5.20;83.53;101744.25;5031508;28;20469;-75
2022/05/03 05:22:17;;;;;;;20.48;7.93;;;;;;;5.29;83.95;101740.41;5027812;28;20010;-75
2022/05/03 05:24:42;;;;;;;20.15;6.90;;;;;;;5.34;83.07;101746.41;5011659;28;20028;-75
2022/05/03 05:27:08;;;;;;;19.35;7.60;;;;;;;5.37;83.92;101747.19;5011661;28;20492;-75
2022/05/03 05:29:33;;;;;;;18.50;7.07;;;;;;;5.45;84.30;101754.88;5011216;28;20393;-75
2022/05/03 05:31:59;;;;;;;18.83;7.32;;;;;;;5.54;83.25;101746.53;5011505;28;20033;-75
2022/05/03 05:34:24;;;;;;;20.98;8.05;;;;;;;5.63;83.62;101750.66;5011657;28;20029;-75
2022/05/03 05:36:49;;;;;;;21.83;8.05;;;;;;;5.70;82.41;101752.16;5010049;28;20397;-75
2022/05/03 05:39:14;;;;;;;19.08;7.53;;;;;;;5.81;82.89;101761.53;5011547;28;20125;-75
2022/05/03 05:41:40;;;;;;;18.50;7.32;;;;;;;5.88;81.87;101758.56;5011713;28;20021;-75
2022/05/03 05:44:05;;;;;;;20.95;8.07;;;;;;;6.00;82.85;101764.38;5010179;28;20044;-75
2022/05/03 05:46:30;;;;;;;22.08;8.40;;;;;;;6.07;81.45;101761.41;5011303;28;20076;-75
2022/05/03 05:48:56;;;;;;;18.73;7.63;;;;;;;6.12;81.17;101767.44;5028030;28;20033;-75
2022/05/03 05:51:21;;;;;;;20.23;7.85;;;;;;;6.21;81.92;101765.31;5030834;28;20032;-75
2022/05/03 05:53:46;;;;;;;20.25;8.45;;;;;;;6.25;81.88;101767.84;5029725;28;20203;-75
2022/05/03 05:56:12;;;;;;;19.55;8.25;;;;;;;6.31;82.40;101769.38;5030999;28;20025;-75
2022/05/03 05:58:37;;;;;;;20.02;8.13;;;;;;;6.38;81.94;101768.19;5031069;28;20108;-75
2022/05/03 06:01:03;;;;;;;19.30;7.97;;;;;;;6.43;81.86;101768.88;5030866;28;20465;-75
2022/05/03 06:03:29;;;;;;;20.00;8.38;;;;;;;6.50;80.61;101765.94;5030910;28;20032;-75
2022/05/03 06:05:56;;;;;;;20.95;7.95;;;;;;;6.56;80.72;101769.25;5029366;28;20025;-75
2022/05/03 06:08:22;;;;;;;19.10;7.95;;;;;;;6.63;81.12;101765.38;5029322;28;20067;-75
2022/05/03 06:10:49;;;;;;;21.70;8.48;;;;;;;6.69;80.38;101768.72;5030792;28;20022;-75
2022/05/03 06:13:15;;;;;;;20.75;8.30;;;;;;;6.76;80.88;101775.53;5013608;28;20022;-75
2022/05/03 06:15:40;;;;;;;20.77;7.55;;;;;;;6.82;80.20;101775.25;5011119;28;20278;-75
2022/05/03 06:18:07;;;;;;;21.52;9.15;;;;;;;6.87;81.10;101778.63;5019570;28;20052;-75
2022/05/03 06:20:33;;;;;;;28.00;9.98;;;;;;;6.95;79.30;101778.28;5030838;28;20524;-75
2022/05/03 06:22:58;;;;;;;21.23;8.77;;;;;;;7.04;79.01;101772.53;5029282;28;20160;-75
2022/05/03 06:25:23;;;;;;;20.88;8.50;;;;;;;7.12;80.43;101773.06;5030820;28;20030;-75
2022/05/03 06:27:49;;;;;;;21.33;8.05;;;;;;;7.20;77.99;101778.06;5030750;28;20480;-75
2022/05/03 06:30:14;;;;;;;21.02;8.18;;;;;;;7.30;78.01;101784.75;5029393;28;20814;-75
2022/05/03 06:32:43;;;;;;;17.92;6.78;;;;;;;7.38;74.82;101779.09;5029398;28;20405;-75
2022/05/03 06:35:09;;;;;;;17.10;6.57;;;;;;;7.47;73.82;101783.16;5030621;28;20028;-75
2022/05/03 06:37:39;;;;;;;21.20;7.88;;;;;;;7.56;73.72;101776.50;5029154;28;20018;-75
2022/05/03 06:40:08;;;;;;;;;;;;;;;7.66;75.87;101775.16;5029820;28;20032;-75
2022/05/03 06:42:36;;;;;;;21.83;9.00;;;;;;;7.74;73.40;101767.63;5029496;28;19917;-75
2022/05/03 06:45:01;;;;;;;21.30;7.43;;;;;;;7.83;73.69;101769.00;5013219;28;20029;-75
2022/05/03 06:47:27;;;;;;;18.90;6.72;;;;;;;7.92;70.32;101776.59;5018983;28;20481;-75
2022/05/03 06:49:53;;;;;;;19.48;6.72;;;;;;;8.03;70.87;101768.91;5034293;28;20130;-75
2022/05/03 06:52:20;;;;;;;17.80;6.30;;;;;;;8.11;69.42;101775.72;5033881;28;20025;-75
2022/05/03 06:54:45;;;;;;;16.25;6.13;;;;;;;8.19;68.59;101773.53;5034309;28;20560;-75
2022/05/03 06:57:10;;;;;;;17.80;6.25;;;;;;;8.28;70.33;101778.44;5034139;28;20096;-75
2022/05/03 06:59:35;;;;;;;14.23;5.45;;;;;;;8.35;66.93;101777.19;5032853;28;20481;-75
2022/05/03 07:02:01;;;;;;;16.75;5.57;;;;;;;8.45;66.15;101774.09;5033619;28;20064;-75
2022/05/03 07:04:26;;;;;;;14.63;4.97;;;;;;;8.52;65.30;101783.56;5032597;28;20037;-75
2022/05/03 07:06:51;;;;;;;16.45;5.55;;;;;;;8.61;64.88;101780.44;5033375;28;20053;-75
2022/05/03 07:09:16;;;;;;;74.68;11.55;;;;;;;8.71;67.14;101786.19;5033948;28;20031;-75
2022/05/03 07:11:43;;;;;;;20.90;5.28;;;;;;;8.80;63.99;101785.75;5033942;28;20052;-75
2022/05/03 07:14:08;;;;;;;15.43;4.82;;;;;;;8.89;64.45;101790.63;5032714;28;20477;-75
2022/05/03 07:16:33;;;;;;;16.17;4.60;;;;;;;8.97;62.44;101787.53;5033778;28;20616;-75
2022/05/03 07:24:26;;;;;;;13.80;4.28;;;;;;;9.24;58.73;101795.97;4994976;28;20056;-75
2022/05/03 07:26:51;;;;;;;12.05;3.85;;;;;;;9.31;57.82;101785.78;4992977;28;20022;-75
2022/05/03 07:29:17;;;;;;;15.85;5.07;;;;;;;9.39;57.69;101788.94;4993175;28;20434;-75
2022/05/03 07:31:43;;;;;;;9.50;3.70;;;;;;;9.48;56.91;101792.09;4992555;28;20117;-75
2022/05/03 07:34:08;;;;;;;14.13;4.45;;;;;;;9.56;56.23;101797.88;4994209;28;20083;-75
2022/05/03 07:36:34;;;;;;;11.45;4.13;;;;;;;9.65;57.26;101794.72;4993996;28;20037;-75
2022/05/03 07:38:59;;;;;;;14.80;4.38;;;;;;;9.72;56.12;101798.81;4994423;28;20030;-75
2022/05/03 07:41:24;;;;;;;15.57;4.63;;;;;;;9.80;56.73;101796.56;4994140;28;20076;-75
2022/05/03 07:43:50;;;;;;;9.93;3.50;;;;;;;9.89;54.82;101802.38;4976761;28;20114;-76
2022/05/03 07:46:16;;;;;;;12.85;4.60;;;;;;;9.97;55.75;101792.94;4993649;28;20092;-76
2022/05/03 07:48:41;;;;;;;14.20;3.28;;;;;;;10.06;53.31;101798.75;5023213;28;20079;-76
2022/05/03 07:51:06;;;;;;;11.00;3.72;;;;;;;10.15;55.21;101792.88;5033192;28;20064;-76
2022/05/03 07:53:31;;;;;;;15.50;4.75;;;;;;;10.22;53.63;101794.25;5032684;28;20062;-76
2022/05/03 07:55:57;;;;;;;15.27;4.88;;;;;;;10.31;54.04;101793.72;5031645;28;20029;-76
2022/05/03 07:58:23;;;;;;;12.00;4.28;;;;;;;10.36;52.46;101784.56;5033072;28;20033;-76
2022/05/03 08:00:49;;;;;;;15.38;4.80;;;;;;;10.43;51.82;101783.28;5033371;28;20029;-76
2022/05/03 08:03:16;;;;;;;14.90;5.05;;;;;;;10.49;53.71;101791.81;5032991;28;20546;-76
2022/05/03 08:05:42;;;;;;;14.00;4.30;;;;;;;10.58;55.17;101794.94;5032784;28;20095;-76
2022/05/03 08:08:07;;;;;;;19.02;5.28;;;;;;;10.67;54.30;101794.41;5032798;28;20045;-76
2022/05/03 08:10:32;;;;;;;14.73;4.82;;;;;;;10.75;53.36;101797.50;5031492;28;20057;-76
2022/05/03 08:12:58;;;;;;;15.02;5.50;;;;;;;10.89;56.17;101795.81;5020436;28;20025;-76
2022/05/03 08:15:23;;;;;;;17.27;5.35;;;;;;;10.94;55.05;101791.91;5012913;28;20392;-76
2022/05/03 08:17:49;;;;;;;13.75;4.75;;;;;;;11.01;55.48;101793.28;5020245;28;20029;-76
2022/05/03 08:20:16;;;;;;;15.38;4.95;;;;;;;11.08;53.24;101795.59;5032663;28;20439;-76
2022/05/03 08:22:42;;;;;;;16.58;5.65;;;;;;;11.14;54.43;101796.09;5032391;28;20404;-76
2022/05/03 08:25:08;;;;;;;15.13;4.82;;;;;;;11.21;53.52;101793.03;5032423;28;20035;-76
2022/05/03 08:27:36;;;;;;;17.85;5.60;;;;;;;11.28;54.07;101805.16;5031435;28;20025;-76
2022/05/03 08:30:02;;;;;;;15.07;5.05;;;;;;;11.34;53.03;101800.25;5032436;28;20021;-76
2022/05/03 08:32:27;;;;;;;18.13;6.50;;;;;;;11.43;54.02;101806.03;5030762;28;20079;-76
2022/05/03 08:34:53;;;;;;;20.33;6.10;;;;;;;11.55;58.41;101799.88;5032366;28;20017;-76
2022/05/03 08:42:46;;;;;;;18.83;5.78;;;;;;;11.75;55.17;101801.31;5026797;28;20068;-76
2022/05/03 08:45:11;;;;;;;19.35;6.05;;;;;;;11.82;56.68;101799.13;5012665;28;20433;-76
2022/05/03 08:47:38;;;;;;;19.50;6.82;;;;;;;11.89;55.09;101801.31;5018089;28;20028;-76
2022/05/03 08:50:07;;;;;;;19.33;7.00;;;;;;;11.96;56.48;101795.56;5032145;28;20112;-76
2022/05/03 08:52:39;;;;;;;22.10;6.70;;;;;;;12.00;54.42;101800.66;5030699;28;20025;-76
2022/05/03 08:55:05;;;;;;;24.25;7.63;;;;;;;12.07;54.88;101796.59;5031874;28;20037;-76
2022/05/03 08:57:31;;;;;;;29.30;6.82;;;;;;;12.14;53.07;101798.91;5031957;28;20481;-76
2022/05/03 08:59:57;;;;;;;20.42;6.85;;;;;;;12.21;54.60;101797.53;5031897;28;20122;-76
2022/05/03 09:02:22;;;;;;;18.65;7.13;;;;;;;12.28;55.82;101792.63;5031866;28;20061;-76
2022/05/03 09:04:48;;;;;;;19.42;7.50;;;;;;;12.36;55.94;101798.38;5031071;28;20112;-76
2022/05/03 09:07:24;;;;;;;21.02;7.05;;;;;;;12.43;54.73;101801.53;5030023;28;20052;-76
2022/05/03 09:09:51;;;;;;;21.42;7.57;;;;;;;12.46;54.28;101794.13;5031645;28;20041;-76
2022/05/03 09:12:28;;;;;;;18.98;6.97;;;;;;;12.52;57.35;101791.00;5031621;28;20029;-76
2022/05/03 09:15:01;;;;;;;19.20;7.13;;;;;;;12.64;57.26;101794.72;5031928;28;20025;-76
2022/05/03 09:17:41;;;;;;;20.77;7.15;;;;;;;12.73;59.52;101799.47;5031480;28;20025;-76
2022/05/03 09:26:18;;;;;;;21.20;8.20;;;;;;;13.02;59.87;101801.19;5012081;28;20049;-76
2022/05/03 09:28:54;;;;;;;18.88;7.43;;;;;;;12.98;56.87;101802.34;5011752;28;20398;-76
2022/05/03 09:31:36;;;;;;;20.85;7.60;;;;;;;13.00;57.62;101801.28;4993804;28;20119;-76
2022/05/03 09:34:03;;;;;;;23.10;7.20;;;;;;;13.12;59.02;101796.88;5011635;28;20104;-76
2022/05/03 09:36:40;;;;;;;18.02;6.57;;;;;;;13.14;57.31;101800.31;5009990;28;20025;-76
2022/05/03 09:39:05;;;;;;;18.25;6.60;;;;;;;13.21;58.13;101795.38;5011550;28;20044;-76
2022/05/03 09:41:31;;;;;;;18.55;7.57;;;;;;;13.23;57.62;101798.81;5010188;28;20026;-76
2022/05/03 09:44:08;;;;;;;18.02;6.90;;;;;;;13.36;59.74;101801.56;5010198;28;20517;-76
2022/05/03 09:46:50;;;;;;;18.33;6.50;;;;;;;13.39;58.40;101795.97;5009968;28;20076;-76
2022/05/03 09:49:18;;;;;;;20.35;8.40;;;;;;;13.35;54.96;101789.88;5030746;28;20022;-76
2022/05/03 09:51:43;;;;;;;18.83;7.75;;;;;;;13.43;58.99;101792.94;5030882;28;20025;-76
2022/05/03 09:54:10;;;;;;;20.10;8.15;;;;;;;13.45;55.38;101795.53;5030381;28;20508;-76
2022/05/03 09:56:39;;;;;;;19.73;8.10;;;;;;;13.51;56.76;101789.69;5003134;28;20508;-76
2022/05/03 09:59:07;;;;;;;18.13;6.95;;;;;;;13.60;58.39;101797.16;5011291;28;20029;-76
2022/05/03 10:01:34;;;;;;;19.15;7.80;;;;;;;13.68;57.75;101793.91;5011110;28;20022;-76
2022/05/03 10:04:00;;;;;;;23.20;8.05;;;;;;;13.67;55.93;101791.31;5010650;28;20036;-76
2022/05/03 10:06:26;;;;;;;18.67;8.02;;;;;;;13.70;57.10;101785.69;5010939;28;20026;-76
2022/05/03 10:08:52;;;;;;;18.67;7.03;;;;;;;13.83;57.53;101785.66;5009963;28;20476;-76
2022/05/03 10:11:18;;;;;;;20.10;8.15;;;;;;;13.89;57.04;101794.19;5011081;28;20040;-76
2022/05/03 10:13:43;;;;;;;17.83;6.90;;;;;;;13.95;55.77;101782.94;5011116;28;20049;-76
2022/05/03 10:21:43;;;;;;;18.80;8.10;;;;;;;14.24;57.02;101776.38;5034904;28;20122;-76
2022/05/03 10:24:12;;;;;;;17.85;7.00;;;;;;;14.31;56.72;101786.59;5033404;28;20488;-76
2022/05/03 10:26:56;;;;;;;16.42;6.32;;;;;;;14.44;56.83;101783.00;5033368;28;20029;-76
2022/05/03 10:29:23;;;;;;;16.67;5.20;;;;;;;14.53;55.61;101784.16;5034716;28;20067;-76
2022/05/03 10:31:54;;;;;;;14.73;5.35;;;;;;;14.66;58.53;101779.56;5034249;28;20029;-76
2022/05/03 10:34:56;;;;;;;19.63;6.57;;;;;;;14.60;56.16;101767.34;5034710;28;20036;-76
2022/05/03 10:37:33;;;;;;;17.40;5.78;;;;;;;14.64;57.86;101771.56;5033451;28;20365;-76
2022/05/03 10:40:12;;;;;;;18.52;7.30;;;;;;;14.70;55.34;101769.38;5034576;28;20028;-76
2022/05/03 10:42:37;;;;;;;20.02;7.90;;;;;;;14.79;55.48;101764.13;5028880;28;20038;-76
2022/05/03 10:45:06;;;;;;;19.05;7.45;;;;;;;14.83;56.13;101768.31;5014662;28;20085;-76
2022/05/03 10:47:44;;;;;;;18.83;7.18;;;;;;;14.92;55.60;101774.00;5019596;28;20036;-76
2022/05/03 10:50:19;;;;;;;17.90;7.10;;;;;;;14.98;55.91;101768.97;5034520;28;20017;-76
2022/05/03 10:52:58;;;;;;;18.95;6.90;;;;;;;15.01;54.64;101767.88;5034202;28;20022;-76
2022/05/03 10:55:25;;;;;;;19.80;7.07;;;;;;;15.09;54.94;101754.59;5034176;28;20033;-76
2022/05/03 10:58:15;;;;;;;19.33;8.13;;;;;;;15.18;56.17;101763.84;5034194;28;20040;-76
2022/05/03 11:01:11;;;;;;;19.35;6.70;;;;;;;15.28;55.74;101764.84;5033980;28;20485;-76
2022/05/03 11:03:41;;;;;;;18.13;6.90;;;;;;;15.21;53.21;101763.59;5034110;28;20473;-76
2022/05/03 11:06:18;;;;;;;18.33;6.35;;;;;;;15.20;55.71;101759.19;5034005;28;20034;-76
2022/05/03 11:09:09;;;;;;;18.02;6.13;;;;;;;15.17;52.26;101754.03;5032711;28;20045;-76
2022/05/03 11:11:43;;;;;;;17.50;6.25;;;;;;;15.18;52.42;101753.00;5033965;28;20102;-76
2022/05/03 11:14:19;;;;;;;16.23;5.53;;;;;;;15.31;53.70;101747.50;5033920;28;20068;-76
2022/05/03 11:17:11;;;;;;;18.70;6.95;;;;;;;15.42;54.61;101743.94;5033496;28;20044;-76
2022/05/03 11:19:58;;;;;;;18.92;7.15;;;;;;;15.46;55.68;101742.69;5030040;28;20056;-76
2022/05/03 11:22:32;;;;;;;18.73;6.50;;;;;;;15.60;55.69;101744.31;5033574;28;20505;-76
2022/05/03 11:25:02;;;;;;;18.50;6.65;;;;;;;15.58;52.90;101739.03;5034087;28;20029;-76
2022/05/03 11:27:27;;;;;;;19.58;6.22;;;;;;;15.54;53.19;101742.97;5032871;28;20029;-76
2022/05/03 11:29:58;;;;;;;17.13;6.72;;;;;;;15.48;53.56;101738.91;5032222;28;20485;-76
2022/05/03 11:32:27;;;;;;;17.13;6.40;;;;;;;15.45;52.31;101732.88;5015993;28;20050;-76
2022/05/03 11:35:07;;;;;;;17.88;6.40;;;;;;;15.47;53.15;101729.03;4992792;28;20478;-76
2022/05/03 11:37:34;;;;;;;20.55;7.97;;;;;;;15.47;51.10;101725.47;4993864;28;20038;-76
2022/05/03 11:40:05;;;;;;;18.02;5.45;;;;;;;15.58;54.39;101724.59;4992853;28;20018;-76
2022/05/03 11:42:42;;;;;;;14.38;5.30;;;;;;;15.70;53.16;101720.91;4992899;28;20125;-76
2022/05/03 11:45:09;;;;;;;15.77;5.57;;;;;;;15.86;52.47;101717.84;4994044;28;20033;-76
2022/05/03 11:47:37;;;;;;;16.20;4.63;;;;;;;15.98;50.59;101715.97;5004836;28;20029;-76
2022/05/03 11:50:03;;;;;;;18.90;6.75;;;;;;;15.97;49.65;101717.81;5033261;28;20021;-76
2022/05/03 11:57:57;;;;;;;19.55;7.68;;;;;;;16.19;51.96;101706.06;5033183;28;20095;-76
2022/05/03 12:00:22;;;;;;;18.58;6.78;;;;;;;16.22;55.17;101700.38;5032839;28;20029;-76
2022/05/03 12:02:47;;;;;;;19.27;7.13;;;;;;;16.21;52.57;101698.66;5031467;28;20025;-76
2022/05/03 12:05:16;;;;;;;17.63;5.97;;;;;;;16.17;50.17;101704.47;5031805;28;20037;-76
2022/05/03 12:07:51;;;;;;;18.20;6.55;;;;;;;16.16;52.31;101702.72;5032532;28;20061;-76
2022/05/03 12:10:37;;;;;;;14.90;5.07;;;;;;;16.14;51.93;101704.72;5032844;28;20040;-76
2022/05/03 12:13:26;;;;;;;17.45;5.53;;;;;;;16.19;52.70;101697.03;5016856;28;20036;-76
2022/05/03 12:15:58;;;;;;;15.75;5.68;;;;;;;16.19;50.87;101697.94;5013007;28;20025;-76
2022/05/03 12:18:33;;;;;;;14.07;4.60;;;;;;;16.18;50.27;101698.91;5023618;28;20029;-76